createdAt,value
2018-09-23T00:00:09.091Z,2.00
2018-09-23T00:02:36.626Z,1.48
2018-09-23T00:05:04.205Z,2.08
2018-09-23T00:07:31.632Z,1.12
2018-09-23T00:09:59.100Z,1.55
2018-09-23T00:12:26.761Z,2.08
2018-09-23T00:14:54.212Z,1.73
2018-09-23T00:17:21.656Z,1.70
2018-09-23T00:19:49.137Z,1.62
2018-09-23T00:22:16.641Z,2.75
2018-09-23T00:24:44.084Z,1.10
2018-09-23T00:27:11.543Z,1.42
2018-09-23T00:29:38.959Z,1.75
2018-09-23T00:32:06.401Z,1.70
2018-09-23T00:34:33.808Z,1.42
2018-09-23T00:37:01.271Z,1.60
2018-09-23T00:39:28.672Z,1.35
2018-09-23T00:41:56.096Z,1.27
2018-09-23T00:44:23.500Z,2.03
2018-09-23T00:46:50.934Z,1.60
2018-09-23T00:49:18.464Z,1.10
2018-09-23T00:51:45.887Z,0.93
2018-09-23T00:54:13.315Z,1.60
2018-09-23T00:56:40.720Z,1.40
2018-09-23T00:59:08.154Z,1.52
2018-09-23T01:01:35.610Z,1.45
2018-09-23T01:04:03.131Z,1.40
2018-09-23T01:06:30.564Z,1.73
2018-09-23T01:08:58.057Z,1.60
2018-09-23T01:11:25.533Z,1.73
2018-09-23T01:13:53.034Z,2.10
2018-09-23T01:16:20.541Z,1.40
2018-09-23T01:18:48.007Z,1.77
2018-09-23T01:21:15.562Z,1.50
2018-09-23T01:23:42.999Z,1.20
2018-09-23T01:26:11.306Z,1.70
2018-09-23T01:28:38.741Z,1.30
2018-09-23T01:31:06.175Z,1.80
2018-09-23T01:33:33.649Z,1.35
2018-09-23T01:36:01.045Z,1.80
2018-09-23T01:38:28.652Z,1.25
2018-09-23T01:40:56.079Z,1.70
2018-09-23T01:43:23.654Z,1.80
2018-09-23T01:45:51.442Z,1.70
2018-09-23T01:48:18.881Z,1.20
2018-09-23T01:50:46.269Z,1.40
2018-09-23T01:53:13.760Z,1.30
2018-09-23T01:55:41.211Z,1.35
2018-09-23T01:58:08.857Z,1.25
2018-09-23T02:00:36.264Z,1.37
2018-09-23T02:03:03.858Z,1.48
2018-09-23T02:05:32.363Z,1.65
2018-09-23T02:07:59.828Z,1.62
2018-09-23T02:10:27.835Z,1.25
2018-09-23T02:12:55.323Z,1.45
2018-09-23T02:15:22.793Z,1.35
2018-09-23T02:17:50.221Z,1.05
2018-09-23T02:20:17.648Z,1.55
2018-09-23T02:22:45.079Z,1.30
2018-09-23T02:25:12.536Z,1.50
2018-09-23T02:27:40.470Z,1.00
2018-09-23T02:30:07.868Z,1.33
2018-09-23T02:32:35.538Z,1.77
2018-09-23T02:35:02.998Z,1.00
2018-09-23T02:37:30.422Z,1.17
2018-09-23T02:39:57.859Z,1.42
2018-09-23T02:42:25.266Z,2.00
2018-09-23T02:44:52.702Z,1.37
2018-09-23T02:47:20.105Z,1.00
2018-09-23T02:49:47.514Z,1.30
2018-09-23T02:52:14.947Z,1.95
2018-09-23T02:54:42.379Z,2.10
2018-09-23T02:57:09.825Z,1.73
2018-09-23T02:59:37.271Z,1.48
2018-09-23T03:02:04.693Z,1.00
2018-09-23T03:04:32.091Z,1.42
2018-09-23T03:06:59.547Z,1.65
2018-09-23T03:09:27.024Z,1.35
2018-09-23T03:11:54.528Z,1.00
2018-09-23T03:14:21.925Z,1.40
2018-09-23T03:16:49.334Z,2.60
2018-09-23T03:19:16.779Z,1.55
2018-09-23T03:21:44.209Z,2.37
2018-09-23T03:24:11.685Z,1.40
2018-09-23T03:26:39.129Z,1.33
2018-09-23T03:29:06.588Z,1.25
2018-09-23T03:31:33.989Z,1.35
2018-09-23T03:34:01.429Z,1.40
2018-09-23T03:36:29.399Z,1.23
2018-09-23T03:38:57.145Z,1.80
2018-09-23T03:41:24.565Z,1.40
2018-09-23T03:43:52.417Z,1.75
2018-09-23T03:46:19.897Z,1.30
2018-09-23T03:48:47.332Z,1.37
2018-09-23T03:51:14.793Z,1.30
2018-09-23T03:53:42.466Z,1.35
2018-09-23T03:56:10.589Z,1.60
2018-09-23T03:58:38.084Z,1.45
2018-09-23T04:01:05.524Z,1.35
2018-09-23T04:03:33.561Z,1.45
2018-09-23T04:06:01.020Z,1.23
2018-09-23T04:08:28.470Z,1.83
2018-09-23T04:10:55.915Z,1.75
2018-09-23T04:13:23.347Z,0.98
2018-09-23T04:15:50.794Z,1.60
2018-09-23T04:18:18.323Z,1.60
2018-09-23T04:20:45.780Z,1.37
2018-09-23T04:23:13.176Z,1.33
2018-09-23T04:25:40.706Z,1.80
2018-09-23T04:28:08.185Z,1.55
2018-09-23T04:30:35.635Z,2.28
2018-09-23T04:33:03.074Z,1.60
2018-09-23T04:35:30.505Z,1.55
2018-09-23T04:37:58.589Z,1.48
2018-09-23T04:40:26.044Z,2.40
2018-09-23T04:42:53.489Z,1.83
2018-09-23T04:45:20.914Z,1.60
2018-09-23T04:47:48.388Z,1.08
2018-09-23T04:50:15.860Z,1.25
2018-09-23T04:52:43.308Z,1.48
2018-09-23T04:55:10.759Z,1.60
2018-09-23T04:57:38.144Z,1.50
2018-09-23T05:00:05.546Z,1.08
2018-09-23T05:02:33.012Z,1.65
2018-09-23T05:05:00.420Z,1.10
2018-09-23T05:07:27.870Z,1.60
2018-09-23T05:09:55.480Z,1.15
2018-09-23T05:12:22.906Z,1.60
2018-09-23T05:14:50.319Z,1.42
2018-09-23T05:17:17.753Z,3.10
2018-09-23T05:19:45.234Z,2.58
2018-09-23T05:22:12.641Z,1.20
2018-09-23T05:24:40.033Z,1.52
2018-09-23T05:27:07.491Z,1.20
2018-09-23T05:29:34.897Z,1.40
2018-09-23T05:32:02.379Z,1.37
2018-09-23T05:34:29.848Z,1.45
2018-09-23T05:36:57.282Z,2.10
2018-09-23T05:39:24.705Z,2.40
2018-09-23T05:41:52.135Z,2.10
2018-09-23T05:44:19.604Z,2.05
2018-09-23T05:46:47.035Z,1.35
2018-09-23T05:49:14.515Z,1.55
2018-09-23T05:51:42.079Z,1.40
2018-09-23T05:54:09.489Z,1.45
2018-09-23T05:56:37.017Z,1.98
2018-09-23T05:59:04.440Z,1.67
2018-09-23T06:01:31.878Z,2.15
2018-09-23T06:03:59.315Z,1.58
2018-09-23T06:06:27.212Z,1.60
2018-09-23T06:08:54.671Z,2.05
2018-09-23T06:11:22.089Z,1.95
2018-09-23T06:13:49.562Z,2.28
2018-09-23T06:16:16.996Z,1.85
2018-09-23T06:18:44.439Z,1.85
2018-09-23T06:21:11.825Z,1.62
2018-09-23T06:23:39.283Z,1.70
2018-09-23T06:26:06.715Z,1.90
2018-09-23T06:28:34.161Z,1.42
2018-09-23T06:31:01.589Z,1.85
2018-09-23T06:33:29.028Z,2.25
2018-09-23T06:35:56.566Z,1.52
2018-09-23T06:38:24.007Z,2.00
2018-09-23T06:40:51.470Z,1.80
2018-09-23T06:43:19.140Z,1.58
2018-09-23T06:45:46.665Z,2.12
2018-09-23T06:48:14.283Z,2.40
2018-09-23T06:50:41.746Z,1.50
2018-09-23T06:53:09.152Z,2.78
2018-09-23T06:55:36.619Z,2.70
2018-09-23T06:58:04.039Z,1.30
2018-09-23T07:00:31.558Z,2.00
2018-09-23T07:02:58.979Z,1.52
2018-09-23T07:05:26.437Z,2.28
2018-09-23T07:07:53.890Z,2.10
2018-09-23T07:10:21.402Z,2.58
2018-09-23T07:12:48.762Z,1.48
2018-09-23T07:15:16.204Z,2.47
2018-09-23T07:17:43.605Z,1.90
2018-09-23T07:20:11.151Z,1.25
2018-09-23T07:22:39.479Z,1.58
2018-09-23T07:25:06.972Z,2.37
2018-09-23T07:27:34.413Z,1.25
2018-09-23T07:30:01.990Z,1.77
2018-09-23T07:32:29.363Z,1.30
2018-09-23T07:34:56.802Z,1.80
2018-09-23T07:37:24.331Z,1.20
2018-09-23T07:39:51.834Z,2.15
2018-09-23T07:42:20.039Z,1.80
2018-09-23T07:44:47.513Z,1.48
2018-09-23T07:47:14.989Z,1.20
2018-09-23T07:49:42.935Z,1.67
2018-09-23T07:52:10.430Z,1.87
2018-09-23T07:54:37.867Z,2.03
2018-09-23T07:57:05.338Z,1.50
2018-09-23T07:59:32.778Z,1.60
2018-09-23T08:02:00.352Z,1.35
2018-09-23T08:04:27.839Z,1.20
2018-09-23T08:06:55.316Z,2.70
2018-09-23T08:09:22.837Z,1.77
2018-09-23T08:11:50.295Z,1.48
2018-09-23T08:14:17.985Z,2.75
2018-09-23T08:16:45.300Z,1.52
2018-09-23T08:19:12.829Z,1.25
2018-09-23T08:21:40.507Z,1.60
2018-09-23T08:24:07.974Z,1.30
2018-09-23T08:26:35.480Z,1.52
2018-09-23T08:29:02.958Z,1.52
2018-09-23T08:31:30.444Z,1.77
2018-09-23T08:33:57.893Z,1.48
2018-09-23T08:36:25.299Z,1.10
2018-09-23T08:38:52.752Z,1.73
2018-09-23T08:41:20.248Z,1.60
2018-09-23T08:43:47.698Z,1.23
2018-09-23T08:46:15.142Z,1.30
2018-09-23T08:48:42.628Z,1.40
2018-09-23T08:51:10.066Z,1.42
2018-09-23T08:53:37.506Z,1.37
2018-09-23T08:56:04.911Z,1.10
2018-09-23T08:58:32.465Z,1.40
2018-09-23T09:00:59.861Z,1.20
2018-09-23T09:03:27.277Z,2.17
2018-09-23T09:05:54.823Z,1.05
2018-09-23T09:08:22.241Z,1.65
2018-09-23T09:10:49.717Z,1.50
2018-09-23T09:13:17.195Z,1.20
2018-09-23T09:15:44.644Z,1.85
2018-09-23T09:18:12.191Z,1.30
2018-09-23T09:20:39.592Z,1.65
2018-09-23T09:23:07.101Z,1.45
2018-09-23T09:25:34.663Z,1.15
2018-09-23T09:28:02.249Z,1.55
2018-09-23T09:30:29.700Z,1.60
2018-09-23T09:32:57.127Z,1.42
2018-09-23T09:35:24.663Z,1.58
2018-09-23T09:37:52.104Z,1.52
2018-09-23T09:40:19.563Z,1.73
2018-09-23T09:42:47.681Z,1.20
2018-09-23T09:45:15.082Z,1.70
2018-09-23T09:47:42.561Z,1.00
2018-09-23T09:50:10.110Z,1.45
2018-09-23T09:52:37.546Z,3.83
2018-09-23T09:55:05.014Z,1.70
2018-09-23T09:57:32.480Z,1.60
2018-09-23T09:59:59.907Z,1.60
2018-09-23T10:02:27.395Z,1.70
2018-09-23T10:04:54.966Z,1.90
2018-09-23T10:07:22.448Z,2.17
2018-09-23T10:09:49.879Z,1.80
2018-09-23T10:41:42.070Z,2.30
2018-09-23T10:44:09.576Z,1.70
2018-09-23T10:46:37.170Z,3.20
2018-09-23T10:49:04.616Z,1.90
2018-09-23T10:51:32.063Z,4.47
2018-09-23T11:11:08.980Z,3.10
2018-09-23T11:13:36.408Z,5.43
2018-09-23T11:16:03.853Z,4.82
2018-09-23T11:18:31.518Z,5.22
2018-09-23T11:20:58.984Z,5.12
2018-09-23T11:23:26.592Z,6.50
2018-09-23T11:25:54.034Z,4.10
2018-09-23T11:28:21.537Z,7.15
2018-09-23T11:30:49.162Z,4.93
2018-09-23T11:33:16.636Z,4.40
2018-09-23T11:35:44.097Z,4.70
2018-09-23T11:38:11.573Z,3.95
2018-09-23T11:40:39.212Z,5.30
2018-09-23T11:43:06.680Z,6.40
2018-09-23T11:45:34.143Z,6.05
2018-09-23T11:48:01.628Z,4.22
2018-09-23T11:50:29.051Z,4.80
2018-09-23T11:52:56.512Z,6.95
2018-09-23T11:55:24.581Z,5.72
2018-09-23T11:57:51.974Z,6.85
2018-09-23T12:00:20.083Z,9.73
2018-09-23T12:02:49.338Z,6.15
2018-09-23T12:05:16.780Z,7.47
2018-09-23T12:07:44.254Z,7.40
2018-09-23T12:10:11.787Z,9.63
2018-09-23T12:12:39.235Z,6.15
2018-09-23T12:15:06.688Z,5.03
2018-09-23T12:17:34.302Z,6.80
2018-09-23T12:20:01.702Z,4.60
2018-09-23T12:22:29.288Z,3.37
2018-09-23T12:24:56.842Z,4.55
2018-09-23T12:27:24.297Z,4.53
2018-09-23T12:29:51.678Z,3.53
2018-09-23T12:32:19.131Z,5.00
2018-09-23T12:34:46.556Z,6.20
2018-09-23T12:37:14.959Z,6.07
2018-09-23T12:39:42.483Z,5.22
2018-09-23T12:42:09.924Z,4.20
2018-09-23T12:44:37.369Z,5.47
2018-09-23T12:47:04.864Z,5.50
2018-09-23T12:49:32.341Z,5.10
2018-09-23T12:51:59.775Z,5.28
2018-09-23T12:54:27.207Z,5.25
2018-09-23T12:56:54.621Z,7.80
2018-09-23T12:59:22.168Z,6.50
2018-09-23T13:01:49.750Z,8.95
2018-09-23T13:14:05.529Z,8.38
2018-09-23T13:16:32.988Z,6.50
2018-09-23T13:19:00.400Z,7.90
2018-09-23T13:21:27.824Z,6.20
2018-09-23T13:23:55.256Z,4.85
2018-09-23T13:26:22.798Z,5.70
2018-09-23T13:28:50.229Z,7.70
2018-09-23T13:31:17.691Z,5.87
2018-09-23T13:33:45.134Z,6.90
2018-09-23T13:36:12.584Z,7.55
2018-09-23T13:38:40.118Z,6.95
2018-09-23T13:41:07.578Z,8.70
2018-09-23T13:43:35.030Z,6.30
2018-09-23T13:46:02.564Z,9.00
2018-09-23T13:48:30.012Z,8.60
2018-09-23T13:50:57.478Z,7.90
2018-09-23T13:53:25.694Z,7.72
2018-09-23T13:55:53.315Z,8.35
2018-09-23T13:58:20.931Z,6.45
2018-09-23T14:00:48.698Z,8.25
2018-09-23T14:03:16.230Z,6.75
2018-09-23T14:05:43.742Z,5.90
2018-09-23T14:08:11.702Z,6.95
2018-09-23T14:10:39.179Z,4.90
2018-09-23T14:13:07.143Z,3.55
2018-09-23T14:15:34.589Z,3.97
2018-09-23T14:18:02.041Z,3.00
2018-09-23T14:20:29.475Z,3.87
2018-09-23T14:22:56.957Z,3.20
2018-09-23T14:25:24.795Z,5.55
2018-09-23T14:27:52.329Z,3.35
2018-09-23T14:30:19.785Z,3.30
2018-09-23T14:32:48.001Z,4.40
2018-09-23T14:35:15.466Z,5.20
2018-09-23T14:37:44.046Z,4.50
2018-09-23T14:40:11.760Z,4.55
2018-09-23T14:42:39.183Z,6.50
2018-09-23T14:45:06.632Z,7.10
2018-09-23T14:47:34.092Z,4.00
2018-09-23T14:50:01.575Z,4.40
2018-09-23T14:52:28.981Z,7.05
2018-09-23T14:54:56.554Z,5.35
2018-09-23T14:57:23.877Z,5.87
2018-09-23T14:59:54.364Z,4.57
2018-09-23T15:02:18.866Z,5.50
2018-09-23T15:04:46.350Z,4.57
2018-09-23T15:07:13.883Z,3.92
2018-09-23T15:09:41.312Z,4.05
2018-09-23T15:12:08.746Z,4.78
2018-09-23T15:14:36.316Z,3.72
2018-09-23T15:17:03.756Z,3.67
2018-09-23T15:19:31.197Z,4.60
2018-09-23T15:21:58.661Z,6.50
2018-09-23T15:24:26.085Z,3.83
2018-09-23T15:26:53.558Z,4.22
2018-09-23T15:29:21.435Z,3.03
2018-09-23T15:31:48.881Z,3.20
2018-09-23T15:34:16.405Z,3.60
2018-09-23T15:36:43.902Z,3.95
2018-09-23T15:39:11.328Z,2.50
2018-09-23T15:41:38.762Z,3.75
2018-09-23T15:44:06.216Z,2.80
2018-09-23T15:46:33.628Z,3.30
2018-09-23T15:49:01.133Z,3.00
2018-09-23T15:51:28.597Z,4.00
2018-09-23T15:53:56.028Z,2.75
2018-09-23T15:56:23.483Z,3.97
2018-09-23T15:58:50.950Z,3.20
2018-09-23T16:01:18.436Z,2.35
2018-09-23T16:03:46.570Z,2.30
2018-09-23T16:06:14.046Z,2.75
2018-09-23T16:08:41.494Z,2.75
2018-09-23T16:11:08.956Z,2.60
2018-09-23T16:13:36.394Z,2.60
2018-09-23T16:16:03.902Z,3.55
2018-09-23T16:18:31.554Z,2.83
2018-09-23T16:20:58.905Z,2.28
2018-09-23T16:23:26.375Z,4.10
2018-09-23T16:25:54.066Z,3.70
2018-09-23T16:28:21.480Z,3.10
2018-09-23T16:30:48.931Z,4.05
2018-09-23T16:33:16.380Z,3.92
2018-09-23T16:35:43.907Z,3.42
2018-09-23T16:38:11.357Z,2.55
2018-09-23T16:40:38.808Z,3.53
2018-09-23T16:43:06.284Z,3.55
2018-09-23T16:45:33.977Z,2.17
2018-09-23T16:48:01.415Z,2.40
2018-09-23T16:50:28.890Z,2.97
2018-09-23T16:52:56.383Z,2.60
2018-09-23T16:55:23.909Z,2.47
2018-09-23T16:57:51.416Z,3.10
2018-09-23T17:00:18.873Z,2.90
2018-09-23T17:02:46.410Z,2.95
2018-09-23T17:05:13.897Z,3.05
2018-09-23T17:07:41.330Z,3.33
2018-09-23T17:10:08.776Z,2.78
2018-09-23T17:12:36.174Z,3.53
2018-09-23T17:17:30.626Z,2.35
2018-09-23T17:19:58.058Z,2.05
2018-09-23T17:22:25.489Z,2.00
2018-09-23T17:24:52.927Z,2.40
2018-09-23T17:27:20.391Z,2.72
2018-09-23T17:29:47.897Z,2.20
2018-09-23T17:32:15.358Z,2.37
2018-09-23T17:42:03.908Z,2.50
2018-09-23T17:44:31.398Z,2.65
2018-09-23T17:46:59.040Z,1.87
2018-09-23T17:49:26.499Z,2.17
2018-09-23T17:51:54.404Z,1.67
2018-09-23T17:54:21.888Z,1.80
2018-09-23T18:01:43.459Z,1.90
2018-09-23T18:04:10.924Z,1.80
2018-09-23T18:09:05.426Z,2.40
2018-09-23T18:11:32.940Z,1.87
2018-09-23T18:18:54.300Z,2.50
2018-09-23T18:21:21.728Z,1.70
2018-09-23T18:23:49.302Z,1.80
2018-09-23T19:17:43.330Z,2.00
2018-09-23T19:20:10.731Z,1.62
2018-09-23T19:22:38.160Z,1.77
2018-09-23T19:25:05.599Z,2.15
2018-09-23T19:27:33.057Z,2.45
2018-09-23T19:30:00.543Z,2.03
2018-09-23T19:32:28.050Z,2.33
2018-09-23T19:34:55.470Z,1.55
2018-09-23T19:37:22.936Z,1.53
2018-09-23T19:39:50.338Z,1.33
2018-09-23T19:42:17.802Z,1.80
2018-09-23T19:44:45.239Z,2.15
2018-09-23T19:47:12.712Z,1.35
2018-09-23T19:49:40.157Z,1.80
2018-09-23T19:52:07.627Z,1.40
2018-09-23T19:54:35.128Z,1.52
2018-09-23T19:57:02.556Z,1.15
2018-09-23T19:59:30.032Z,2.00
2018-09-23T20:01:57.516Z,1.80
2018-09-23T20:04:24.985Z,1.15
2018-09-23T20:06:52.720Z,1.20
2018-09-23T20:09:20.140Z,1.40
2018-09-23T20:11:47.823Z,1.40
2018-09-23T20:14:15.230Z,1.70
2018-09-23T20:16:42.628Z,2.20
2018-09-23T20:19:10.109Z,1.67
2018-09-23T20:21:38.212Z,1.52
2018-09-23T20:24:05.675Z,1.45
2018-09-23T20:26:33.700Z,1.33
2018-09-23T20:29:01.127Z,1.50
2018-09-23T20:31:28.520Z,1.65
2018-09-23T20:33:56.044Z,1.20
2018-09-23T20:36:23.468Z,2.42
2018-09-23T20:38:51.076Z,1.27
2018-09-23T20:41:18.503Z,1.10
2018-09-23T20:43:45.996Z,1.85
2018-09-23T20:46:13.401Z,1.33
2018-09-23T20:48:40.825Z,1.60
2018-09-23T20:51:08.282Z,1.00
2018-09-23T20:53:35.924Z,3.20
2018-09-23T20:56:03.361Z,1.10
2018-09-23T20:58:30.777Z,1.00
2018-09-23T21:00:58.206Z,0.70
2018-09-23T21:03:25.694Z,2.50
2018-09-23T21:05:53.167Z,0.75
2018-09-23T21:08:20.597Z,0.75
2018-09-23T21:10:48.104Z,0.70
2018-09-23T21:13:15.545Z,0.60
2018-09-23T21:15:42.997Z,0.60
2018-09-23T21:18:10.399Z,0.88
2018-09-23T21:20:37.848Z,0.80
2018-09-23T21:23:05.272Z,0.60
2018-09-23T21:25:32.751Z,0.60
2018-09-23T21:28:00.183Z,0.60
2018-09-23T21:30:27.615Z,0.80
2018-09-23T21:32:55.038Z,0.60
2018-09-23T21:35:22.510Z,1.40
2018-09-23T21:37:50.001Z,1.33
2018-09-23T21:40:17.477Z,0.88
2018-09-23T21:42:44.923Z,0.90
2018-09-23T21:45:12.323Z,0.80
2018-09-23T21:47:39.740Z,0.60
2018-09-23T21:50:07.142Z,1.20
2018-09-23T21:52:34.585Z,0.60
2018-09-23T21:55:02.007Z,0.90
2018-09-23T21:57:29.406Z,0.70
2018-09-23T21:59:56.840Z,0.60
2018-09-23T22:02:24.249Z,0.85
2018-09-23T22:04:51.663Z,0.77
2018-09-23T22:07:19.114Z,0.80
2018-09-23T22:09:46.580Z,1.20
2018-09-23T22:12:14.034Z,1.77
2018-09-23T22:14:41.430Z,0.70
2018-09-23T22:17:08.844Z,2.58
2018-09-23T22:19:36.322Z,3.53
2018-09-23T22:22:03.731Z,1.50
2018-09-23T22:24:31.156Z,0.82
2018-09-23T22:26:58.591Z,0.80
2018-09-23T22:29:26.034Z,0.90
2018-09-23T22:31:53.499Z,0.75
2018-09-23T22:34:20.899Z,1.62
2018-09-23T22:36:48.308Z,0.70
2018-09-23T22:39:15.765Z,1.55
2018-09-23T22:41:43.186Z,2.58
2018-09-23T22:44:10.639Z,0.60
2018-09-23T22:46:38.073Z,0.80
2018-09-23T22:49:05.556Z,1.70
2018-09-23T22:51:33.001Z,2.97
2018-09-23T22:54:00.472Z,2.03
2018-09-23T22:56:27.904Z,0.95
2018-09-23T22:58:55.461Z,2.25
2018-09-23T23:01:22.846Z,0.70
2018-09-23T23:03:50.287Z,1.70
2018-09-23T23:06:17.690Z,3.20
2018-09-23T23:08:45.203Z,4.47
2018-09-23T23:11:12.678Z,0.60
2018-09-23T23:13:40.103Z,0.60
2018-09-23T23:16:07.494Z,0.60
2018-09-23T23:18:34.931Z,4.15
2018-09-23T23:21:02.355Z,0.65
2018-09-23T23:23:29.753Z,3.25
2018-09-23T23:25:57.184Z,0.80
2018-09-23T23:28:24.616Z,0.60
2018-09-23T23:30:52.041Z,1.27
2018-09-23T23:33:19.530Z,2.15
2018-09-23T23:35:47.028Z,0.60
2018-09-23T23:38:14.486Z,2.00
2018-09-23T23:40:41.922Z,0.60
2018-09-23T23:43:09.543Z,0.70
2018-09-23T23:45:36.992Z,0.80
2018-09-23T23:48:04.445Z,1.90
2018-09-23T23:50:31.884Z,0.60
2018-09-23T23:52:59.339Z,0.70
2018-09-23T23:55:26.745Z,0.95
2018-09-23T23:57:54.183Z,0.62
